createdAt,value
2023-03-06T05:07:26.659Z,100.00
2023-03-06T05:09:54.045Z,100.00
2023-03-06T05:12:21.301Z,100.00
2023-03-06T05:14:48.565Z,100.00
2023-03-06T05:17:15.818Z,100.00
2023-03-06T05:19:43.162Z,100.00
2023-03-06T05:22:10.586Z,100.00
2023-03-06T05:24:38.428Z,100.00
2023-03-06T05:27:05.667Z,100.00
2023-03-06T05:29:33.574Z,100.00
2023-03-06T05:32:01.041Z,100.00
2023-03-06T05:34:28.413Z,100.00
2023-03-06T05:36:55.690Z,100.00
2023-03-06T05:39:22.996Z,100.00
2023-03-06T05:41:50.237Z,100.00
2023-03-06T05:44:17.507Z,100.00
2023-03-06T05:46:44.768Z,100.00
2023-03-06T05:49:12.462Z,100.00
2023-03-06T05:51:39.751Z,100.00
2023-03-06T05:54:07.099Z,100.00
2023-03-06T05:56:35.126Z,100.00
2023-03-06T05:59:02.653Z,100.00
2023-03-06T06:01:30.305Z,100.00
2023-03-06T06:03:58.139Z,100.00
2023-03-06T06:06:25.471Z,100.00
2023-03-06T06:08:52.692Z,100.00
2023-03-06T06:11:21.094Z,100.00
2023-03-06T06:13:49.067Z,100.00
2023-03-06T06:16:17.000Z,100.00
2023-03-06T06:18:45.692Z,100.00
2023-03-06T06:21:16.853Z,100.00
2023-03-06T06:23:44.641Z,100.00
2023-03-06T06:26:12.097Z,100.00
2023-03-06T06:28:39.745Z,100.00
2023-03-06T06:31:09.398Z,100.00
2023-03-06T06:33:36.660Z,100.00
2023-03-06T06:36:05.190Z,100.00
2023-03-06T06:38:32.924Z,100.00
2023-03-06T06:41:35.683Z,100.00
2023-03-06T06:43:50.742Z,100.00
2023-03-06T06:46:49.993Z,100.00
2023-03-06T06:49:06.298Z,100.00
2023-03-06T06:51:34.674Z,100.00
2023-03-06T06:54:02.096Z,100.00
2023-03-06T06:56:29.366Z,100.00
2023-03-06T06:59:15.375Z,100.00
2023-03-06T07:01:44.464Z,100.00
2023-03-06T07:04:14.782Z,100.00
2023-03-06T07:06:42.443Z,100.00
2023-03-06T07:09:09.812Z,100.00
2023-03-06T07:11:38.078Z,100.00
2023-03-06T07:14:05.711Z,100.00
2023-03-06T07:16:33.622Z,100.00
2023-03-06T07:19:01.407Z,100.00
2023-03-06T07:21:28.885Z,100.00
2023-03-06T07:23:57.506Z,100.00
2023-03-06T07:26:26.541Z,100.00
2023-03-06T07:28:54.981Z,100.00
2023-03-06T07:31:26.155Z,100.00
2023-03-06T07:33:55.115Z,100.00
2023-03-06T07:36:23.390Z,100.00
2023-03-06T07:38:50.649Z,100.00
2023-03-06T07:41:21.845Z,100.00
2023-03-06T07:43:50.162Z,100.00
2023-03-06T07:46:18.107Z,100.00
2023-03-06T07:48:45.411Z,100.00
2023-03-06T07:51:18.465Z,100.00
2023-03-06T07:53:46.833Z,100.00
2023-03-06T07:56:14.752Z,100.00
2023-03-06T07:58:45.067Z,100.00
2023-03-06T08:01:23.553Z,100.00
2023-03-06T08:03:51.455Z,100.00
2023-03-06T08:06:22.313Z,100.00
2023-03-06T08:08:51.093Z,100.00
2023-03-06T08:11:21.260Z,100.00
2023-03-06T08:13:49.678Z,100.00
2023-03-06T08:16:19.188Z,100.00
2023-03-06T08:18:46.777Z,100.00
2023-03-06T08:21:42.312Z,100.00
2023-03-06T08:24:10.326Z,100.00
2023-03-06T08:26:37.695Z,100.00
2023-03-06T08:29:06.038Z,100.00
2023-03-06T08:31:36.764Z,100.00
2023-03-06T08:34:07.474Z,100.00
2023-03-06T08:36:35.137Z,100.00
2023-03-06T08:39:03.010Z,100.00
2023-03-06T08:41:30.905Z,100.00
2023-03-06T08:43:58.370Z,100.00
2023-03-06T08:46:28.252Z,100.00
2023-03-06T08:48:57.320Z,100.00
2023-03-06T08:51:25.995Z,100.00
2023-03-06T08:53:53.517Z,100.00
2023-03-06T08:56:23.793Z,100.00
2023-03-06T08:58:52.581Z,100.00
2023-03-06T09:01:22.663Z,100.00
2023-03-06T09:03:50.958Z,100.00
2023-03-06T09:06:18.397Z,100.00
2023-03-06T09:08:46.409Z,100.00
2023-03-06T09:11:15.498Z,100.00
2023-03-06T09:13:44.035Z,100.00
2023-03-06T09:16:13.310Z,100.00
2023-03-06T09:18:40.891Z,100.00
2023-03-06T09:21:10.068Z,100.00
2023-03-06T09:23:39.494Z,100.00
2023-03-06T09:26:08.362Z,100.00
2023-03-06T09:28:36.753Z,100.00
2023-03-06T09:31:18.178Z,100.00
2023-03-06T09:33:46.920Z,100.00
2023-03-06T09:36:20.408Z,100.00
2023-03-06T09:38:49.900Z,100.00
2023-03-06T09:41:31.259Z,100.00
2023-03-06T09:44:05.182Z,100.00
2023-03-06T09:46:41.774Z,100.00
2023-03-06T09:49:51.486Z,100.00
2023-03-06T09:52:36.438Z,100.00
2023-03-06T09:55:17.761Z,100.00
2023-03-06T09:57:54.707Z,100.00
2023-03-06T10:00:31.443Z,100.00
2023-03-06T10:03:19.728Z,100.00
2023-03-06T10:05:54.424Z,100.00
2023-03-06T10:08:38.049Z,100.00
2023-03-06T10:11:11.109Z,100.00
2023-03-06T10:13:53.953Z,100.00
2023-03-06T10:16:32.563Z,100.00
2023-03-06T10:19:04.461Z,100.00
2023-03-06T10:21:54.925Z,100.00
2023-03-06T10:24:59.748Z,100.00
2023-03-06T10:27:27.527Z,100.00
2023-03-06T10:30:22.663Z,100.00
2023-03-06T10:33:07.522Z,100.00
2023-03-06T10:35:49.712Z,100.00
2023-03-06T10:38:37.353Z,100.00
2023-03-06T10:41:13.515Z,100.00
2023-03-06T10:44:02.994Z,100.00
2023-03-06T10:46:42.473Z,100.00
2023-03-06T10:49:32.124Z,100.00
2023-03-06T10:52:14.372Z,100.00
2023-03-06T10:54:44.580Z,100.00
2023-03-06T10:57:31.137Z,100.00
2023-03-06T11:00:23.049Z,100.00
2023-03-06T11:03:03.953Z,100.00
2023-03-06T11:05:31.470Z,100.00
2023-03-06T11:08:00.519Z,100.00
2023-03-06T11:10:30.732Z,100.00
2023-03-06T11:13:17.205Z,100.00
2023-03-06T11:16:06.801Z,100.00
2023-03-06T11:18:39.580Z,100.00
2023-03-06T11:21:29.151Z,100.00
2023-03-06T11:24:04.105Z,100.00
2023-03-06T11:27:00.052Z,100.00
2023-03-06T11:29:43.263Z,100.00
2023-03-06T11:32:21.262Z,100.00
2023-03-06T11:34:57.677Z,100.00
2023-03-06T11:37:36.360Z,100.00
2023-03-06T11:40:17.698Z,100.00
2023-03-06T11:42:52.506Z,100.00
2023-03-06T11:45:23.314Z,100.00
2023-03-06T11:48:06.858Z,100.00
2023-03-06T11:50:42.569Z,100.00
2023-03-06T11:53:14.058Z,100.00
2023-03-06T11:56:07.438Z,100.00
2023-03-06T11:58:58.120Z,100.00
2023-03-06T12:01:47.292Z,100.00
2023-03-06T12:04:45.459Z,100.00
2023-03-06T12:07:44.265Z,100.00
2023-03-06T12:10:18.217Z,100.00
2023-03-06T12:13:09.979Z,100.00
2023-03-06T12:15:59.035Z,100.00
2023-03-06T12:18:52.642Z,100.00
2023-03-06T12:21:26.045Z,100.00
2023-03-06T12:23:55.018Z,100.00
2023-03-06T12:26:50.491Z,100.00
2023-03-06T12:29:33.658Z,100.00
2023-03-06T12:32:23.156Z,100.00
2023-03-06T12:35:05.896Z,100.00
2023-03-06T12:37:48.946Z,100.00
2023-03-06T12:40:25.328Z,100.00
2023-03-06T12:43:10.282Z,99.53
2023-03-06T12:45:38.392Z,98.75
2023-03-06T12:48:15.423Z,98.00
2023-03-06T12:50:44.540Z,94.96
2023-03-06T12:53:23.303Z,94.94
2023-03-06T12:55:51.771Z,92.23
2023-03-06T12:58:29.964Z,89.53
2023-03-06T13:01:09.487Z,90.36
2023-03-06T13:04:05.015Z,89.49
2023-03-06T13:07:10.368Z,90.81
2023-03-06T13:09:56.554Z,92.05
2023-03-06T13:12:45.308Z,87.97
2023-03-06T13:15:33.922Z,90.79
2023-03-06T13:18:01.599Z,87.66
2023-03-06T13:20:37.046Z,86.86
2023-03-06T13:23:32.942Z,88.42
2023-03-06T13:26:05.572Z,85.61
2023-03-06T13:28:39.957Z,83.57
2023-03-06T13:31:18.141Z,80.61
2023-03-06T13:33:56.696Z,81.25
2023-03-06T13:36:27.778Z,83.42
2023-03-06T13:39:13.414Z,82.28
2023-03-06T13:41:58.044Z,80.31
2023-03-06T13:44:25.479Z,77.70
2023-03-06T13:47:39.180Z,75.04
2023-03-06T13:50:38.496Z,75.54
2023-03-06T13:53:33.150Z,72.79
2023-03-06T13:56:47.398Z,72.25
2023-03-06T13:59:23.844Z,70.78
2023-03-06T14:02:18.533Z,68.00
2023-03-06T14:04:53.574Z,57.71
2023-03-06T14:07:25.690Z,53.05
2023-03-06T14:10:13.682Z,47.17
2023-03-06T14:12:48.894Z,47.27
2023-03-06T14:15:16.174Z,42.98
2023-03-06T14:18:05.342Z,44.10
2023-03-06T14:20:42.356Z,41.96
2023-03-06T14:23:28.438Z,42.95
2023-03-06T14:26:19.314Z,40.62
2023-03-06T14:29:02.329Z,39.84
2023-03-06T14:31:43.229Z,38.95
2023-03-06T14:34:25.488Z,37.91
2023-03-06T14:36:55.342Z,37.96
2023-03-06T14:39:36.273Z,36.42
2023-03-06T14:42:25.905Z,34.85
2023-03-06T14:45:23.788Z,35.00
2023-03-06T14:47:53.096Z,34.82
2023-03-06T14:50:32.473Z,35.05
2023-03-06T14:53:06.722Z,33.89
2023-03-06T14:55:35.867Z,34.14
2023-03-06T14:58:19.927Z,33.67
2023-03-06T15:00:50.848Z,35.01
2023-03-06T15:03:24.118Z,35.59
2023-03-06T15:05:52.257Z,35.95
2023-03-06T15:08:26.847Z,36.11
2023-03-06T15:10:59.675Z,36.93
2023-03-06T15:13:29.650Z,35.37
2023-03-06T15:16:05.176Z,35.53
2023-03-06T15:18:39.051Z,34.37
2023-03-06T15:21:08.458Z,34.29
2023-03-06T15:23:36.857Z,34.93
2023-03-06T15:26:20.983Z,38.14
2023-03-06T15:29:23.039Z,37.42
2023-03-06T15:31:50.606Z,36.58
2023-03-06T15:34:26.162Z,39.06
2023-03-06T15:36:56.965Z,41.15
2023-03-06T15:39:37.849Z,41.88
2023-03-06T15:42:19.727Z,42.24
2023-03-06T15:44:53.219Z,41.05
2023-03-06T15:47:21.800Z,41.38
2023-03-06T15:49:52.087Z,42.47
2023-03-06T15:52:21.418Z,41.40
2023-03-06T15:54:49.689Z,40.87
2023-03-06T15:57:25.092Z,42.84
2023-03-06T15:59:53.825Z,43.82
2023-03-06T16:02:24.138Z,44.28
2023-03-06T16:04:52.556Z,43.74
2023-03-06T16:07:20.592Z,45.01
2023-03-06T16:09:48.276Z,46.15
2023-03-06T16:12:18.704Z,47.70
2023-03-06T16:14:48.838Z,48.81
2023-03-06T16:17:17.851Z,49.80
2023-03-06T16:19:45.388Z,51.28
2023-03-06T16:22:12.787Z,52.40
2023-03-06T16:24:40.168Z,53.64
2023-03-06T16:27:23.393Z,53.34
2023-03-06T16:29:51.225Z,54.34
2023-03-06T16:32:18.505Z,55.38
2023-03-06T16:34:45.780Z,57.01
2023-03-06T16:37:14.190Z,58.69
2023-03-06T16:39:41.597Z,59.57
2023-03-06T16:42:10.160Z,61.83
2023-03-06T16:44:37.931Z,64.22
2023-03-06T16:47:05.384Z,64.60
2023-03-06T16:49:33.136Z,65.42
2023-03-06T16:52:00.984Z,66.66
2023-03-06T16:54:28.293Z,67.72
2023-03-06T16:56:56.207Z,70.82
2023-03-06T16:59:24.880Z,70.57
2023-03-06T17:01:52.452Z,72.53
2023-03-06T17:04:19.668Z,75.02
2023-03-06T17:06:47.345Z,75.07
2023-03-06T17:09:14.639Z,76.31
2023-03-06T17:11:46.654Z,77.70
2023-03-06T17:14:14.461Z,77.11
2023-03-06T17:16:42.592Z,79.25
2023-03-06T17:19:14.396Z,81.43
2023-03-06T17:21:43.440Z,85.75
2023-03-06T17:24:11.191Z,89.62
2023-03-06T17:26:38.900Z,94.22
2023-03-06T17:29:07.164Z,96.37
2023-03-06T17:31:34.944Z,95.71
2023-03-06T17:34:02.220Z,98.03
2023-03-06T17:36:31.539Z,96.99
2023-03-06T17:39:00.416Z,99.84
2023-03-06T17:41:28.883Z,100.00
2023-03-06T17:43:56.408Z,100.00
2023-03-06T17:46:24.366Z,100.00
2023-03-06T17:48:51.758Z,100.00
2023-03-06T17:51:19.150Z,100.00
2023-03-06T17:53:46.603Z,100.00
2023-03-06T17:56:14.185Z,100.00
2023-03-06T17:58:42.379Z,100.00
2023-03-06T18:01:16.633Z,100.00
2023-03-06T18:03:46.023Z,100.00
2023-03-06T18:06:13.985Z,100.00
2023-03-06T18:08:41.816Z,100.00
2023-03-06T18:11:11.174Z,100.00
2023-03-06T18:13:41.045Z,100.00
2023-03-06T18:16:11.152Z,100.00
2023-03-06T18:18:38.944Z,100.00
2023-03-06T18:21:09.067Z,100.00
2023-03-06T18:23:39.617Z,100.00
2023-03-06T18:26:27.142Z,100.00
2023-03-06T18:28:57.607Z,100.00
2023-03-06T18:31:28.094Z,100.00
2023-03-06T18:33:58.278Z,100.00
2023-03-06T18:36:28.775Z,100.00
2023-03-06T18:38:57.080Z,100.00
2023-03-06T18:41:24.672Z,100.00
2023-03-06T18:43:57.793Z,100.00
2023-03-06T18:46:28.954Z,100.00
2023-03-06T18:48:56.448Z,100.00
2023-03-06T18:51:24.106Z,100.00
2023-03-06T18:53:51.920Z,100.00
2023-03-06T18:56:22.263Z,100.00
2023-03-06T18:58:53.796Z,100.00
2023-03-06T19:01:22.613Z,100.00
2023-03-06T19:03:50.415Z,100.00
2023-03-06T19:06:18.471Z,100.00
2023-03-06T19:08:46.311Z,100.00
2023-03-06T19:11:15.867Z,100.00
2023-03-06T19:13:44.078Z,100.00
2023-03-06T19:16:20.748Z,100.00
2023-03-06T19:18:48.347Z,100.00
2023-03-06T19:21:21.060Z,100.00
2023-03-06T19:23:49.193Z,100.00
2023-03-06T19:26:18.862Z,100.00
2023-03-06T19:28:47.718Z,100.00
2023-03-06T19:31:21.071Z,100.00
2023-03-06T19:33:49.757Z,100.00
2023-03-06T19:36:18.386Z,100.00
2023-03-06T19:38:52.480Z,100.00
2023-03-06T19:41:20.356Z,100.00
2023-03-06T19:43:52.275Z,100.00
2023-03-06T19:46:20.765Z,100.00
2023-03-06T19:48:48.348Z,100.00
2023-03-06T19:51:16.046Z,100.00
2023-03-06T19:53:43.404Z,100.00
2023-03-06T19:56:19.088Z,100.00
2023-03-06T19:58:46.408Z,100.00
2023-03-06T20:01:19.244Z,100.00
2023-03-06T20:03:47.008Z,100.00
2023-03-06T20:06:17.405Z,100.00
2023-03-06T20:08:49.312Z,100.00
2023-03-06T20:11:23.378Z,100.00
2023-03-06T20:13:51.889Z,100.00
2023-03-06T20:16:20.296Z,100.00
2023-03-06T20:18:48.348Z,100.00
2023-03-06T20:21:15.972Z,100.00
2023-03-06T20:23:43.405Z,100.00
2023-03-06T20:26:13.674Z,100.00
2023-03-06T20:28:42.485Z,100.00
2023-03-06T20:31:16.666Z,100.00
2023-03-06T20:33:45.566Z,100.00
2023-03-06T20:36:19.727Z,100.00
2023-03-06T20:38:48.124Z,100.00
2023-03-06T20:41:17.535Z,100.00
2023-03-06T20:43:45.257Z,100.00
2023-03-06T20:46:14.035Z,100.00
2023-03-06T20:48:42.725Z,100.00
2023-03-06T20:51:23.302Z,100.00
2023-03-06T20:53:55.448Z,100.00
2023-03-06T20:56:26.494Z,100.00
2023-03-06T20:58:54.316Z,100.00
2023-03-06T21:01:33.867Z,100.00
2023-03-06T21:04:04.468Z,100.00
2023-03-06T21:06:32.249Z,100.00
2023-03-06T21:09:00.687Z,100.00
2023-03-06T21:11:28.745Z,100.00
2023-03-06T21:13:56.855Z,100.00
2023-03-06T21:16:26.046Z,100.00
2023-03-06T21:18:58.253Z,100.00
2023-03-06T21:21:32.829Z,100.00
2023-03-06T21:24:02.038Z,100.00
2023-03-06T21:26:33.738Z,100.00
2023-03-06T21:29:01.993Z,100.00
2023-03-06T21:31:30.547Z,100.00
2023-03-06T21:33:58.985Z,100.00
2023-03-06T21:36:27.601Z,100.00
2023-03-06T21:38:55.791Z,100.00
2023-03-06T21:41:27.276Z,100.00
2023-03-06T21:43:59.307Z,100.00
2023-03-06T21:46:27.642Z,100.00
2023-03-06T21:48:55.488Z,100.00
2023-03-06T21:51:24.185Z,100.00
2023-03-06T21:53:53.180Z,100.00
2023-03-06T21:56:23.149Z,100.00
2023-03-06T21:58:51.280Z,100.00
2023-03-06T22:01:22.413Z,100.00
2023-03-06T22:03:50.615Z,100.00
2023-03-06T22:06:21.035Z,100.00
2023-03-06T22:08:49.018Z,100.00
2023-03-06T22:11:19.236Z,100.00
2023-03-06T22:13:47.966Z,100.00
2023-03-06T22:16:16.870Z,100.00
2023-03-06T22:18:46.241Z,100.00
2023-03-06T22:21:16.183Z,100.00
2023-03-06T22:23:43.614Z,100.00
2023-03-06T22:26:13.634Z,100.00
2023-03-06T22:28:42.249Z,100.00
2023-03-06T22:31:13.269Z,100.00
2023-03-06T22:33:41.170Z,100.00
2023-03-06T22:36:12.590Z,100.00
2023-03-06T22:38:42.423Z,100.00
2023-03-06T22:41:10.909Z,100.00
2023-03-06T22:43:38.592Z,100.00
2023-03-06T22:46:12.008Z,100.00
2023-03-06T22:48:40.109Z,100.00
2023-03-06T22:51:16.253Z,100.00
2023-03-06T22:53:44.785Z,100.00
2023-03-06T22:56:15.421Z,100.00
2023-03-06T22:58:44.772Z,100.00
2023-03-06T23:01:15.213Z,100.00
2023-03-06T23:03:47.931Z,100.00
2023-03-06T23:06:22.332Z,100.00
2023-03-06T23:08:55.711Z,100.00
2023-03-06T23:11:24.422Z,100.00
2023-03-06T23:14:12.524Z,100.00
2023-03-06T23:16:58.189Z,100.00
2023-03-06T23:19:44.804Z,100.00
2023-03-06T23:22:30.874Z,100.00
2023-03-06T23:25:17.095Z,100.00
2023-03-06T23:27:44.899Z,100.00
2023-03-06T23:30:13.258Z,100.00
2023-03-06T23:32:40.653Z,100.00
2023-03-06T23:35:08.300Z,100.00
2023-03-06T23:37:36.018Z,100.00
2023-03-06T23:40:06.511Z,100.00
2023-03-06T23:42:33.882Z,100.00
2023-03-06T23:45:01.441Z,100.00
2023-03-06T23:47:33.494Z,100.00
2023-03-06T23:50:00.845Z,100.00
2023-03-06T23:52:28.115Z,100.00
2023-03-06T23:54:55.431Z,100.00
2023-03-06T23:57:23.078Z,100.00
2023-03-06T23:59:50.315Z,100.00
